Time;durP1;ratioP1;P1;durP2;ratioP2;P2;SDS_P1;SDS_P2;PMS_P1;PMS_P2;Temp;Humidity;BMP_temperature;BMP_pressure;BME280_temperature;BME280_humidity;BME280_pressure;Samples;Min_cycle;Max_cycle;Signal;HPM_P1;HPM_P2
2023/05/26 00:00:14;;;;;;;13.07;7.45;;;17.50;72.40;;;;;;5057077;28;20029;-64
2023/05/26 00:02:40;;;;;;;12.52;7.13;;;17.50;72.40;;;;;;5059085;28;20021;-63
2023/05/26 00:05:09;;;;;;;9.38;6.38;;;17.50;72.40;;;;;;5058370;28;20421;-64
2023/05/26 00:07:39;;;;;;;9.07;6.47;;;17.50;72.30;;;;;;5057133;28;20032;-64
2023/05/26 00:10:07;;;;;;;12.32;6.50;;;17.50;72.30;;;;;;5057374;28;20032;-64
2023/05/26 00:12:33;;;;;;;9.07;6.35;;;17.40;72.30;;;;;;5057047;28;20025;-64
2023/05/26 00:14:58;;;;;;;10.25;6.22;;;17.40;72.40;;;;;;5056655;28;20047;-63
2023/05/26 00:17:24;;;;;;;11.27;6.53;;;17.30;72.50;;;;;;5056763;28;20032;-63
2023/05/26 00:19:52;;;;;;;9.15;5.72;;;17.30;72.50;;;;;;5056818;28;20029;-63
2023/05/26 00:22:18;;;;;;;11.13;6.00;;;17.20;72.40;;;;;;5056932;28;20028;-63
2023/05/26 00:24:47;;;;;;;11.98;6.72;;;17.20;72.50;;;;;;5056928;28;20033;-63
2023/05/26 00:27:13;;;;;;;11.27;5.95;;;17.20;72.50;;;;;;5055360;28;20115;-63
2023/05/26 00:29:39;;;;;;;9.60;5.80;;;17.20;72.60;;;;;;5056385;28;20039;-63
2023/05/26 00:32:06;;;;;;;9.38;5.47;;;17.20;72.60;;;;;;5056423;28;20013;-65
2023/05/26 00:34:35;;;;;;;11.27;6.60;;;17.20;72.60;;;;;;5056582;28;20068;-63
2023/05/26 00:37:02;;;;;;;10.95;6.57;;;17.20;72.60;;;;;;5056587;28;20032;-64
2023/05/26 00:39:29;;;;;;;9.27;5.90;;;17.10;72.60;;;;;;5056584;28;20048;-62
2023/05/26 00:41:56;;;;;;;10.38;5.80;;;17.20;72.50;;;;;;5056525;28;20104;-63
2023/05/26 00:44:22;;;;;;;8.15;5.38;;;17.20;72.40;;;;;;5056721;28;20461;-64
2023/05/26 00:46:48;;;;;;;6.68;4.57;;;17.20;72.30;;;;;;5055968;28;20021;-64
2023/05/26 00:49:14;;;;;;;8.63;5.10;;;17.30;72.10;;;;;;5056345;28;20426;-64
2023/05/26 00:51:43;;;;;;;7.22;4.43;;;17.30;72.00;;;;;;5056074;28;20036;-63
2023/05/26 00:54:11;;;;;;;6.43;4.13;;;17.40;71.80;;;;;;5056302;28;20057;-64
2023/05/26 00:56:37;;;;;;;5.82;4.13;;;17.40;71.60;;;;;;5055906;28;20349;-64
2023/05/26 00:59:03;;;;;;;6.57;4.25;;;17.40;71.30;;;;;;5056195;28;20029;-64
2023/05/26 01:01:33;;;;;;;6.15;4.18;;;17.50;71.10;;;;;;5056154;28;20048;-64
2023/05/26 01:03:59;;;;;;;6.78;4.20;;;17.50;70.90;;;;;;5055843;28;20021;-64
2023/05/26 01:06:25;;;;;;;6.70;4.28;;;17.60;70.80;;;;;;5055649;28;20391;-64
2023/05/26 01:08:53;;;;;;;7.15;3.88;;;17.60;70.90;;;;;;5055722;28;20025;-64
2023/05/26 01:11:26;;;;;;;6.53;4.00;;;17.60;70.70;;;;;;5055715;28;20025;-64
2023/05/26 01:14:01;;;;;;;8.93;4.13;;;17.60;70.60;;;;;;5055994;28;20078;-64
2023/05/26 01:16:33;;;;;;;5.13;3.97;;;17.60;70.50;;;;;;5055707;28;20089;-64
2023/05/26 01:19:20;;;;;;;8.30;4.07;;;17.60;70.50;;;;;;5055900;28;20441;-64
2023/05/26 01:21:49;;;;;;;8.27;4.57;;;17.60;70.50;;;;;;5055844;28;20071;-64
2023/05/26 01:24:36;;;;;;;7.20;4.20;;;17.50;70.60;;;;;;5056213;28;20035;-64
2023/05/26 01:27:48;;;;;;;8.43;4.65;;;17.40;70.60;;;;;;5055224;28;20064;-64
2023/05/26 01:30:16;;;;;;;8.77;4.65;;;17.40;71.10;;;;;;4994306;28;20022;-64
2023/05/26 01:32:48;;;;;;;6.88;4.50;;;17.40;70.80;;;;;;4994071;28;20348;-64
2023/05/26 01:35:14;;;;;;;11.18;5.70;;;17.30;70.80;;;;;;5029148;28;20391;-64
2023/05/26 01:37:41;;;;;;;9.15;5.07;;;17.30;71.10;;;;;;5055565;28;20033;-64
2023/05/26 01:40:09;;;;;;;9.32;4.95;;;17.20;71.10;;;;;;5055509;28;20028;-64
2023/05/26 01:42:45;;;;;;;10.02;5.35;;;17.10;71.20;;;;;;5055133;28;20074;-64
2023/05/26 01:45:18;;;;;;;12.88;4.90;;;17.10;71.30;;;;;;5055376;28;20144;-64
2023/05/26 01:47:49;;;;;;;12.02;5.07;;;17.10;71.30;;;;;;5055411;28;20108;-63
2023/05/26 01:50:18;;;;;;;9.25;5.05;;;17.10;71.70;;;;;;5054184;28;20370;-63
2023/05/26 01:52:48;;;;;;;10.38;4.72;;;17.00;71.50;;;;;;5055087;28;20422;-64
2023/05/26 01:55:16;;;;;;;8.82;5.30;;;17.00;71.50;;;;;;5054926;28;20506;-64
2023/05/26 01:57:43;;;;;;;8.32;5.47;;;17.00;71.60;;;;;;5055537;28;20041;-64
2023/05/26 02:00:10;;;;;;;7.70;5.22;;;17.00;71.70;;;;;;5055044;28;20104;-64
2023/05/26 02:02:36;;;;;;;7.80;4.55;;;16.90;71.60;;;;;;5054981;28;20470;-64
2023/05/26 02:05:02;;;;;;;7.07;4.97;;;17.00;71.60;;;;;;5054908;28;20029;-64
2023/05/26 02:07:29;;;;;;;7.88;4.20;;;17.00;71.50;;;;;;5055127;28;20033;-64
2023/05/26 02:09:55;;;;;;;7.28;4.10;;;17.00;71.40;;;;;;5054904;28;20025;-63
2023/05/26 02:12:21;;;;;;;6.60;4.43;;;17.00;71.40;;;;;;5055160;28;20040;-63
2023/05/26 02:14:47;;;;;;;6.63;4.57;;;17.00;71.30;;;;;;5055260;28;20021;-63
2023/05/26 02:17:13;;;;;;;6.47;4.30;;;17.10;71.30;;;;;;5055082;28;20025;-64
2023/05/26 02:19:40;;;;;;;7.07;4.68;;;17.00;71.20;;;;;;5054833;28;20469;-65
2023/05/26 02:22:06;;;;;;;7.65;4.50;;;17.10;71.20;;;;;;5054743;28;20047;-64
2023/05/26 02:24:32;;;;;;;7.10;4.55;;;17.20;71.20;;;;;;5054956;28;20039;-64
2023/05/26 02:26:58;;;;;;;8.00;4.28;;;17.20;71.10;;;;;;5054445;28;20044;-64
2023/05/26 02:29:24;;;;;;;6.68;4.38;;;17.10;71.20;;;;;;5055263;28;20019;-64
2023/05/26 02:31:50;;;;;;;7.68;4.28;;;17.10;71.20;;;;;;5054705;28;20029;-64
2023/05/26 02:34:16;;;;;;;7.00;4.28;;;17.10;71.20;;;;;;5054973;28;20049;-64
2023/05/26 02:36:42;;;;;;;7.60;4.53;;;17.10;71.30;;;;;;5055171;28;20068;-64
2023/05/26 02:39:08;;;;;;;5.65;4.18;;;17.10;71.40;;;;;;5054956;28;20047;-64
2023/05/26 02:41:33;;;;;;;8.07;4.47;;;17.00;71.30;;;;;;5054893;28;20075;-63
2023/05/26 02:43:59;;;;;;;11.52;4.35;;;16.90;71.40;;;;;;5055977;28;20037;-64
2023/05/26 02:46:25;;;;;;;8.93;4.53;;;16.90;71.50;;;;;;5058559;28;20057;-64
2023/05/26 02:48:51;;;;;;;8.75;4.30;;;16.90;71.60;;;;;;5058672;28;20025;-63
2023/05/26 02:51:17;;;;;;;6.00;3.95;;;16.80;71.70;;;;;;5058617;28;20100;-64
2023/05/26 02:53:44;;;;;;;10.05;4.88;;;16.80;71.80;;;;;;5058853;28;20079;-64
2023/05/26 02:56:10;;;;;;;6.40;4.20;;;16.80;72.00;;;;;;5058457;28;20115;-64
2023/05/26 02:58:36;;;;;;;8.68;4.80;;;16.70;72.10;;;;;;5058236;28;20104;-64
2023/05/26 03:01:02;;;;;;;10.77;5.00;;;16.70;72.20;;;;;;5058741;28;20037;-64
2023/05/26 03:03:28;;;;;;;7.72;4.07;;;16.60;72.30;;;;;;5058174;28;20494;-64
2023/05/26 03:05:55;;;;;;;8.30;4.18;;;16.60;72.30;;;;;;5057970;28;20366;-64
2023/05/26 03:08:21;;;;;;;7.05;4.75;;;16.50;72.40;;;;;;5058342;28;20091;-64
2023/05/26 03:10:46;;;;;;;8.23;5.00;;;16.60;72.50;;;;;;5058269;28;20441;-64
2023/05/26 03:13:12;;;;;;;8.20;4.75;;;16.50;72.70;;;;;;5058469;28;20456;-64
2023/05/26 03:15:39;;;;;;;11.75;4.97;;;16.50;72.60;;;;;;5058382;28;20021;-64
2023/05/26 03:18:05;;;;;;;6.85;4.38;;;16.50;72.70;;;;;;5057855;28;20447;-64
2023/05/26 03:20:31;;;;;;;6.50;4.25;;;16.50;72.70;;;;;;5057858;28;20199;-64
2023/05/26 03:22:57;;;;;;;6.20;4.10;;;16.50;72.80;;;;;;5057796;28;20501;-63
2023/05/26 03:25:22;;;;;;;6.15;4.22;;;16.50;72.80;;;;;;5057426;28;20118;-62
2023/05/26 03:27:48;;;;;;;8.80;4.40;;;16.40;72.90;;;;;;5057652;28;20029;-63
2023/05/26 03:30:14;;;;;;;7.38;4.57;;;16.50;72.90;;;;;;5057897;28;20029;-63
2023/05/26 03:32:40;;;;;;;7.50;4.35;;;16.40;72.90;;;;;;5057900;28;20028;-64
2023/05/26 03:35:07;;;;;;;6.22;4.22;;;16.40;73.00;;;;;;5057490;28;20032;-64
2023/05/26 03:37:33;;;;;;;7.93;4.32;;;16.40;72.90;;;;;;5057445;28;20025;-63
2023/05/26 03:39:59;;;;;;;7.03;4.70;;;16.40;72.90;;;;;;5058054;28;20357;-64
2023/05/26 03:42:24;;;;;;;6.50;4.40;;;16.40;72.90;;;;;;5057416;28;20048;-64
2023/05/26 03:44:50;;;;;;;8.32;4.25;;;16.40;72.90;;;;;;5057288;28;20029;-64
2023/05/26 03:47:16;;;;;;;6.45;4.47;;;16.40;72.90;;;;;;5057740;28;20082;-63
2023/05/26 03:49:42;;;;;;;8.63;4.45;;;16.40;72.90;;;;;;5057823;28;20033;-63
2023/05/26 03:52:08;;;;;;;7.95;4.50;;;16.50;72.90;;;;;;5057192;28;20029;-63
2023/05/26 03:54:34;;;;;;;8.38;4.32;;;16.60;72.90;;;;;;5056929;28;20037;-63
2023/05/26 03:57:01;;;;;;;7.10;4.05;;;16.60;72.80;;;;;;5057394;28;20029;-64
2023/05/26 03:59:27;;;;;;;5.82;4.10;;;16.60;72.80;;;;;;5057075;28;20039;-63
2023/05/26 04:01:53;;;;;;;5.88;4.13;;;16.70;72.60;;;;;;5057555;28;20017;-63
2023/05/26 04:04:19;;;;;;;7.35;4.28;;;16.70;72.60;;;;;;5056969;28;20036;-63
2023/05/26 04:06:44;;;;;;;7.63;4.47;;;16.80;72.50;;;;;;5057344;28;20435;-62
2023/05/26 04:09:10;;;;;;;7.57;4.18;;;16.80;72.40;;;;;;5057147;28;20029;-62
2023/05/26 04:11:36;;;;;;;8.27;4.53;;;16.90;72.20;;;;;;5057369;28;20017;-63
2023/05/26 04:14:03;;;;;;;8.10;4.28;;;16.90;72.20;;;;;;5057076;28;20067;-62
2023/05/26 04:16:28;;;;;;;6.22;4.15;;;16.90;72.10;;;;;;5056734;28;20029;-63
2023/05/26 04:18:54;;;;;;;9.80;4.78;;;17.10;72.00;;;;;;5056932;28;20123;-63
2023/05/26 04:21:20;;;;;;;7.03;4.20;;;17.30;71.80;;;;;;5056675;28;20495;-63
2023/05/26 04:23:51;;;;;;;6.20;4.28;;;17.40;71.50;;;;;;5057206;28;20025;-64
2023/05/26 04:26:17;;;;;;;8.68;4.88;;;17.60;71.20;;;;;;5056244;28;20473;-63
2023/05/26 04:28:44;;;;;;;6.70;4.65;;;17.90;70.90;;;;;;5056601;28;20104;-63
2023/05/26 04:31:10;;;;;;;6.68;4.47;;;18.10;70.50;;;;;;5056452;28;20029;-64
2023/05/26 04:33:40;;;;;;;6.53;4.90;;;18.40;70.10;;;;;;5056716;28;20040;-63
2023/05/26 04:36:09;;;;;;;6.15;4.32;;;18.70;69.60;;;;;;5056312;28;20064;-63
2023/05/26 04:38:41;;;;;;;5.63;3.78;;;18.90;69.00;;;;;;5056591;28;20032;-63
2023/05/26 04:41:07;;;;;;;9.20;4.68;;;19.30;68.60;;;;;;5056259;28;20338;-63
2023/05/26 04:43:35;;;;;;;6.45;4.40;;;19.70;68.20;;;;;;5056526;28;20350;-64
2023/05/26 04:46:02;;;;;;;7.63;4.47;;;20.40;67.40;;;;;;5056301;28;20167;-63
2023/05/26 04:48:29;;;;;;;6.90;4.30;;;21.20;66.30;;;;;;5055240;28;20048;-64
2023/05/26 04:50:55;;;;;;;7.00;4.72;;;22.10;65.10;;;;;;5056145;28;20029;-64
2023/05/26 04:53:20;;;;;;;7.55;4.25;;;22.90;63.70;;;;;;5056085;28;20031;-64
2023/05/26 04:55:47;;;;;;;7.43;4.00;;;23.90;62.10;;;;;;5056014;28;20025;-64
2023/05/26 04:58:13;;;;;;;6.38;3.65;;;24.70;60.70;;;;;;5055933;28;20362;-65
2023/05/26 05:00:40;;;;;;;6.45;3.65;;;25.60;59.20;;;;;;5055935;28;20029;-64
2023/05/26 05:03:06;;;;;;;6.15;3.80;;;26.40;57.80;;;;;;5056180;28;20029;-64
2023/05/26 05:05:32;;;;;;;7.75;3.80;;;27.20;56.30;;;;;;5055907;28;20060;-64
2023/05/26 05:07:58;;;;;;;5.15;3.42;;;27.90;54.70;;;;;;5054217;28;20409;-64
2023/05/26 05:10:23;;;;;;;5.43;3.53;;;28.70;53.50;;;;;;5056254;28;20419;-65
2023/05/26 05:12:50;;;;;;;5.43;3.58;;;29.40;52.00;;;;;;5055973;28;20160;-65
2023/05/26 05:15:18;;;;;;;5.85;3.40;;;30.10;50.20;;;;;;5055912;28;20061;-65
2023/05/26 05:17:46;;;;;;;7.10;3.50;;;30.70;49.10;;;;;;5055849;28;20494;-65
2023/05/26 05:20:12;;;;;;;5.75;3.88;;;31.40;48.00;;;;;;5055008;28;20021;-64
2023/05/26 05:22:38;;;;;;;7.60;3.97;;;32.10;46.50;;;;;;5055849;28;20174;-64
2023/05/26 05:25:04;;;;;;;6.15;3.80;;;32.70;44.70;;;;;;5055869;28;20534;-65
2023/05/26 05:27:30;;;;;;;6.03;3.60;;;33.20;44.30;;;;;;5055230;28;20159;-64
2023/05/26 05:29:56;;;;;;;4.78;3.38;;;33.80;43.70;;;;;;5055457;28;20029;-64
2023/05/26 05:32:22;;;;;;;5.35;3.50;;;34.40;42.80;;;;;;5055431;28;20032;-65
2023/05/26 05:34:48;;;;;;;5.00;3.45;;;34.90;42.00;;;;;;5055783;28;20017;-64
2023/05/26 05:37:14;;;;;;;4.45;3.50;;;35.40;41.40;;;;;;5055348;28;20063;-64
2023/05/26 05:39:39;;;;;;;3.60;3.10;;;36.00;40.70;;;;;;5055313;28;20040;-64
2023/05/26 05:42:06;;;;;;;5.15;3.58;;;36.50;40.10;;;;;;5055595;28;20082;-64
2023/05/26 05:44:31;;;;;;;5.07;3.13;;;37.00;39.40;;;;;;5054588;28;20047;-65
2023/05/26 05:46:57;;;;;;;4.97;3.50;;;37.40;38.70;;;;;;5055139;28;20409;-65
2023/05/26 05:49:23;;;;;;;4.85;3.10;;;37.90;38.10;;;;;;5055490;28;20021;-65
2023/05/26 05:51:49;;;;;;;4.35;3.30;;;38.20;37.30;;;;;;5055153;28;20048;-65
2023/05/26 05:54:15;;;;;;;4.03;3.00;;;38.60;36.80;;;;;;5055604;28;20053;-65
2023/05/26 05:56:41;;;;;;;4.00;3.08;;;38.90;36.00;;;;;;5055331;28;20207;-65
2023/05/26 05:59:07;;;;;;;4.93;3.30;;;39.30;35.50;;;;;;5055121;28;20021;-65
2023/05/26 06:01:33;;;;;;;3.35;3.05;;;39.70;35.20;;;;;;5055297;28;20078;-63
2023/05/26 06:03:59;;;;;;;6.88;3.50;;;40.00;34.60;;;;;;5055579;28;20052;-63
2023/05/26 06:06:24;;;;;;;3.65;2.97;;;40.40;33.80;;;;;;5054866;28;20354;-63
2023/05/26 06:08:50;;;;;;;3.63;3.03;;;40.90;33.30;;;;;;5055473;28;20086;-64
2023/05/26 06:11:16;;;;;;;4.15;3.03;;;41.20;32.90;;;;;;5054890;28;20461;-63
2023/05/26 06:13:42;;;;;;;4.00;3.05;;;41.60;32.30;;;;;;5054972;28;20068;-63
2023/05/26 06:16:08;;;;;;;7.43;3.15;;;42.00;31.70;;;;;;5054881;28;20021;-63
2023/05/26 06:18:34;;;;;;;4.78;3.13;;;42.50;30.80;;;;;;5057324;28;20032;-64
2023/05/26 06:21:00;;;;;;;3.60;2.90;;;42.90;30.40;;;;;;5059284;28;20059;-64
2023/05/26 06:23:26;;;;;;;5.57;3.53;;;43.30;30.00;;;;;;5058939;28;20401;-64
2023/05/26 06:25:52;;;;;;;4.32;3.28;;;43.50;29.30;;;;;;5058772;28;20059;-64
2023/05/26 06:28:18;;;;;;;4.45;2.85;;;43.70;28.80;;;;;;5059896;28;20044;-64
2023/05/26 06:30:44;;;;;;;4.78;3.38;;;44.00;28.50;;;;;;5059600;28;20335;-64
2023/05/26 06:33:09;;;;;;;4.22;3.00;;;44.30;27.90;;;;;;5058812;28;20025;-64
2023/05/26 06:35:35;;;;;;;4.75;3.25;;;44.60;27.30;;;;;;5059211;28;20025;-63
2023/05/26 06:38:01;;;;;;;6.00;3.25;;;44.80;26.90;;;;;;5059235;28;20032;-64
2023/05/26 06:40:27;;;;;;;4.75;3.33;;;45.00;26.30;;;;;;5059166;28;20024;-64
2023/05/26 06:42:53;;;;;;;3.42;2.90;;;44.90;26.00;;;;;;5058849;28;20377;-64
2023/05/26 06:45:19;;;;;;;5.07;3.10;;;44.10;26.30;;;;;;5058501;28;20465;-64
2023/05/26 06:47:45;;;;;;;4.88;3.05;;;43.00;26.90;;;;;;5058417;28;20441;-65
2023/05/26 06:50:11;;;;;;;4.75;3.38;;;41.60;28.00;;;;;;5058424;28;20049;-63
2023/05/26 06:52:37;;;;;;;5.60;3.65;;;40.40;29.30;;;;;;5058371;28;20060;-63
2023/05/26 06:55:03;;;;;;;4.55;3.38;;;39.20;30.40;;;;;;5058578;28;20021;-63
2023/05/26 06:57:28;;;;;;;5.03;3.42;;;38.20;31.50;;;;;;5058556;28;20036;-64
2023/05/26 06:59:54;;;;;;;4.78;3.50;;;37.40;32.70;;;;;;5058257;28;20070;-63
2023/05/26 07:02:20;;;;;;;5.47;3.88;;;36.70;33.70;;;;;;5058176;28;20037;-63
2023/05/26 07:04:46;;;;;;;5.95;3.78;;;36.10;34.40;;;;;;5058111;28;20021;-63
2023/05/26 07:07:12;;;;;;;5.85;3.60;;;35.60;35.10;;;;;;5058022;28;20028;-63
2023/05/26 07:09:38;;;;;;;5.32;3.63;;;35.20;35.40;;;;;;5058642;28;20096;-63
2023/05/26 07:12:04;;;;;;;7.57;4.00;;;34.90;35.60;;;;;;5058018;28;20493;-63
2023/05/26 07:14:30;;;;;;;5.10;3.80;;;34.70;36.00;;;;;;5058264;28;20187;-63
2023/05/26 07:16:56;;;;;;;4.30;3.90;;;34.40;36.20;;;;;;5058122;28;20142;-63
2023/05/26 07:19:22;;;;;;;6.47;3.35;;;34.30;36.10;;;;;;5057023;28;20450;-63
2023/05/26 07:21:48;;;;;;;3.97;3.38;;;34.10;36.30;;;;;;5057869;28;20025;-63
2023/05/26 07:24:14;;;;;;;6.50;3.83;;;33.90;36.60;;;;;;5057808;28;20461;-63
2023/05/26 07:26:40;;;;;;;7.18;4.78;;;33.90;36.40;;;;;;5056344;28;20091;-63
2023/05/26 07:29:06;;;;;;;5.47;3.78;;;33.70;36.40;;;;;;5056989;28;20017;-62
2023/05/26 07:31:32;;;;;;;5.10;4.00;;;33.50;36.90;;;;;;5057657;28;20109;-63
2023/05/26 07:33:57;;;;;;;6.35;4.07;;;33.30;37.20;;;;;;5057601;28;20415;-63
2023/05/26 07:36:23;;;;;;;6.32;3.78;;;33.20;37.30;;;;;;5057998;28;20086;-63
2023/05/26 07:38:49;;;;;;;7.55;4.20;;;33.20;37.50;;;;;;5057590;28;20043;-63
2023/05/26 07:41:15;;;;;;;5.95;4.40;;;33.10;37.80;;;;;;5056503;28;20082;-63
2023/05/26 07:43:41;;;;;;;5.00;4.35;;;33.00;37.50;;;;;;5057460;28;20444;-63
2023/05/26 07:46:08;;;;;;;6.68;4.22;;;32.90;37.50;;;;;;5057528;28;20029;-62
2023/05/26 07:48:34;;;;;;;5.97;4.13;;;32.70;37.70;;;;;;5057384;28;20021;-63
2023/05/26 07:51:00;;;;;;;6.40;4.90;;;32.60;37.80;;;;;;5057561;28;20036;-63
2023/05/26 07:53:26;;;;;;;7.75;4.65;;;32.50;37.80;;;;;;5057531;28;20419;-63
2023/05/26 07:55:52;;;;;;;6.10;4.50;;;32.40;37.90;;;;;;5057410;28;20435;-63
2023/05/26 07:58:18;;;;;;;7.00;4.85;;;32.30;38.00;;;;;;5057169;28;20035;-63
2023/05/26 08:00:44;;;;;;;7.65;4.60;;;32.10;38.40;;;;;;5057118;28;20104;-64
2023/05/26 08:03:09;;;;;;;6.53;4.10;;;32.00;38.60;;;;;;5057597;28;20056;-63
2023/05/26 08:05:36;;;;;;;6.03;4.35;;;32.00;38.70;;;;;;5056957;28;20033;-64
2023/05/26 08:08:02;;;;;;;6.40;4.65;;;32.10;38.90;;;;;;5057475;28;20025;-63
2023/05/26 08:10:27;;;;;;;4.82;4.25;;;32.10;39.00;;;;;;5057195;28;20032;-63
2023/05/26 08:12:53;;;;;;;5.43;4.13;;;32.20;38.90;;;;;;5057464;28;20032;-64
2023/05/26 08:15:24;;;;;;;6.85;4.35;;;32.20;39.00;;;;;;5056791;28;20506;-64
2023/05/26 08:17:50;;;;;;;6.07;4.10;;;32.20;39.00;;;;;;5057142;28;20032;-64
2023/05/26 08:20:16;;;;;;;7.40;4.53;;;32.00;38.80;;;;;;5056815;28;20081;-64
2023/05/26 08:22:42;;;;;;;8.30;4.60;;;31.90;39.10;;;;;;5056995;28;20051;-64
2023/05/26 08:25:08;;;;;;;9.18;5.15;;;31.80;39.40;;;;;;5056655;28;20032;-64
2023/05/26 08:27:34;;;;;;;7.22;4.60;;;31.60;39.50;;;;;;5056612;28;20454;-64
2023/05/26 08:30:00;;;;;;;6.07;4.32;;;31.50;39.70;;;;;;5056586;28;20485;-64
2023/05/26 08:32:26;;;;;;;6.95;5.00;;;31.50;40.10;;;;;;5056781;28;20102;-64
2023/05/26 08:34:52;;;;;;;5.70;4.80;;;31.40;40.20;;;;;;5056736;28;20036;-64
2023/05/26 08:37:18;;;;;;;6.90;4.90;;;31.30;40.30;;;;;;5056458;28;20528;-64
2023/05/26 08:39:44;;;;;;;7.78;5.30;;;31.30;40.30;;;;;;5056387;28;20106;-64
2023/05/26 08:42:18;;;;;;;6.03;4.43;;;31.30;40.40;;;;;;5056624;28;20049;-64
2023/05/26 08:44:44;;;;;;;5.95;4.70;;;31.30;40.50;;;;;;5055681;28;20036;-64
2023/05/26 08:47:12;;;;;;;7.07;4.78;;;31.30;40.70;;;;;;5056146;28;20385;-64
2023/05/26 08:49:46;;;;;;;7.18;4.82;;;31.30;40.70;;;;;;5056524;28;20025;-64
2023/05/26 08:52:14;;;;;;;5.70;4.70;;;31.30;40.50;;;;;;5056480;28;20025;-64
2023/05/26 08:54:40;;;;;;;6.57;4.88;;;31.30;40.70;;;;;;5056337;28;20033;-64
2023/05/26 08:57:06;;;;;;;7.80;5.30;;;31.30;40.90;;;;;;5056079;28;20079;-64
2023/05/26 08:59:33;;;;;;;7.88;5.25;;;31.10;40.50;;;;;;5056027;28;20025;-64
2023/05/26 09:01:59;;;;;;;7.80;5.03;;;31.00;40.90;;;;;;5056024;28;20055;-66
2023/05/26 09:04:26;;;;;;;7.63;5.45;;;30.90;41.20;;;;;;5055285;28;20033;-64
2023/05/26 09:06:52;;;;;;;7.85;5.72;;;30.90;41.60;;;;;;5055696;28;20120;-63
2023/05/26 09:09:18;;;;;;;6.55;5.47;;;30.90;41.80;;;;;;5056088;28;20043;-64
2023/05/26 09:11:46;;;;;;;9.40;5.88;;;30.90;41.70;;;;;;5054942;28;20025;-63
2023/05/26 09:14:14;;;;;;;8.65;5.93;;;30.80;41.50;;;;;;5055730;28;20021;-64
2023/05/26 09:16:40;;;;;;;8.35;5.85;;;30.90;41.50;;;;;;5055610;28;20071;-64
2023/05/26 09:19:07;;;;;;;10.23;5.55;;;30.90;41.50;;;;;;5055651;28;20036;-64
2023/05/26 09:21:32;;;;;;;8.95;6.22;;;30.90;41.70;;;;;;5055590;28;20354;-64
2023/05/26 09:23:59;;;;;;;9.00;5.45;;;30.90;41.70;;;;;;5056094;28;20036;-64
2023/05/26 09:26:33;;;;;;;8.20;5.53;;;30.80;41.90;;;;;;5055308;28;20045;-64
2023/05/26 09:29:05;;;;;;;7.47;5.18;;;30.90;41.70;;;;;;5055868;28;20029;-64
2023/05/26 09:31:44;;;;;;;7.15;5.03;;;30.90;41.70;;;;;;5055917;28;20346;-64
2023/05/26 09:34:11;;;;;;;7.72;5.25;;;30.90;41.70;;;;;;5054866;28;20033;-64
2023/05/26 09:36:39;;;;;;;7.43;5.20;;;30.90;41.70;;;;;;5055292;28;20393;-64
2023/05/26 09:39:07;;;;;;;8.10;5.25;;;30.90;41.70;;;;;;5055889;28;20079;-64
2023/05/26 09:41:40;;;;;;;7.53;4.90;;;30.90;41.40;;;;;;5055845;28;20349;-64
2023/05/26 09:44:14;;;;;;;7.30;4.75;;;30.80;41.80;;;;;;5055552;28;20111;-64
2023/05/26 09:46:41;;;;;;;6.25;4.95;;;30.90;41.90;;;;;;5055201;28;20199;-64
2023/05/26 09:49:14;;;;;;;8.68;5.18;;;30.90;41.80;;;;;;5055192;28;20049;-63
2023/05/26 09:51:42;;;;;;;6.18;4.70;;;31.00;41.80;;;;;;5055527;28;20108;-64
2023/05/26 09:54:11;;;;;;;7.68;5.55;;;30.90;41.70;;;;;;5055020;28;20353;-63
2023/05/26 09:56:58;;;;;;;7.47;5.50;;;31.00;41.70;;;;;;5055069;28;20029;-64
2023/05/26 09:59:31;;;;;;;7.50;5.18;;;31.00;41.90;;;;;;5054834;28;20032;-64
2023/05/26 10:01:58;;;;;;;7.68;5.78;;;31.00;41.90;;;;;;5055402;28;20029;-64
2023/05/26 10:04:24;;;;;;;6.80;5.03;;;30.90;42.00;;;;;;5055327;28;20025;-64
2023/05/26 10:06:52;;;;;;;7.47;5.40;;;30.90;42.00;;;;;;5055204;28;20076;-64
2023/05/26 10:09:22;;;;;;;5.85;4.50;;;30.90;42.20;;;;;;5054962;28;20028;-64
2023/05/26 10:11:51;;;;;;;6.95;5.00;;;31.00;42.30;;;;;;5055293;28;20024;-64
2023/05/26 10:14:17;;;;;;;8.65;5.47;;;31.00;42.40;;;;;;5054950;28;20492;-64
2023/05/26 10:16:44;;;;;;;7.50;4.88;;;31.00;42.60;;;;;;5054855;28;20025;-64
2023/05/26 10:19:10;;;;;;;7.18;5.40;;;31.00;42.30;;;;;;5055185;28;20051;-63
2023/05/26 10:21:41;;;;;;;6.18;4.65;;;30.90;41.80;;;;;;5054891;28;20103;-64
2023/05/26 10:24:30;;;;;;;7.20;4.88;;;30.90;41.90;;;;;;5054927;28;20025;-64
2023/05/26 10:27:24;;;;;;;8.88;5.18;;;30.90;42.10;;;;;;5054395;28;20128;-64
2023/05/26 10:30:16;;;;;;;6.60;5.20;;;30.90;41.70;;;;;;5049117;28;20469;-64
2023/05/26 10:32:54;;;;;;;7.43;5.57;;;30.90;42.20;;;;;;5052977;28;20025;-64
2023/05/26 10:35:33;;;;;;;7.18;5.15;;;30.80;41.90;;;;;;5054990;28;20082;-64
2023/05/26 10:38:02;;;;;;;8.55;5.72;;;30.70;42.20;;;;;;5038555;28;20393;-64
2023/05/26 10:40:43;;;;;;;10.07;6.30;;;30.70;42.20;;;;;;5055236;28;20029;-64
2023/05/26 10:43:25;;;;;;;8.90;5.80;;;30.60;42.30;;;;;;5054977;28;20036;-64
2023/05/26 10:45:55;;;;;;;7.55;5.65;;;30.40;42.50;;;;;;5054761;28;20029;-64
2023/05/26 10:48:25;;;;;;;9.38;5.60;;;30.40;43.00;;;;;;5054861;28;20083;-63
2023/05/26 10:51:00;;;;;;;7.80;5.80;;;30.30;43.30;;;;;;5054640;28;20065;-64
2023/05/26 10:53:31;;;;;;;10.10;6.63;;;30.30;42.90;;;;;;5054859;28;20025;-64
2023/05/26 10:56:04;;;;;;;9.18;5.45;;;30.30;43.00;;;;;;5054625;28;20043;-64
2023/05/26 10:58:31;;;;;;;;;;;30.40;43.10;;;;;;5055343;28;20380;-64
2023/05/26 11:01:07;;;;;;;7.60;5.57;;;30.40;43.20;;;;;;5054802;28;19905;-64
2023/05/26 11:03:36;;;;;;;8.40;5.20;;;30.50;43.20;;;;;;5055061;28;20120;-64
2023/05/26 11:06:03;;;;;;;7.05;5.47;;;30.50;43.30;;;;;;5057270;28;20024;-64
2023/05/26 11:08:49;;;;;;;8.10;5.75;;;30.70;43.40;;;;;;5058417;28;20506;-64
2023/05/26 11:11:29;;;;;;;6.90;5.47;;;30.70;43.10;;;;;;5058397;28;20029;-63
2023/05/26 11:14:06;;;;;;;7.18;5.00;;;30.70;43.00;;;;;;5058314;28;20059;-64
2023/05/26 11:16:36;;;;;;;7.60;5.55;;;30.70;43.30;;;;;;5057039;28;20493;-64
2023/05/26 11:19:06;;;;;;;7.97;5.82;;;30.80;43.40;;;;;;5058224;28;20071;-64
2023/05/26 11:21:34;;;;;;;9.63;6.28;;;30.80;43.40;;;;;;5057941;28;20331;-64
2023/05/26 11:24:02;;;;;;;8.95;6.55;;;30.80;43.30;;;;;;5057811;28;20033;-64
2023/05/26 11:26:32;;;;;;;6.53;5.28;;;30.70;43.10;;;;;;5057461;28;20045;-64
2023/05/26 11:29:05;;;;;;;6.82;4.88;;;30.70;43.00;;;;;;5058045;28;20017;-64
2023/05/26 11:31:31;;;;;;;6.50;4.82;;;30.60;42.90;;;;;;5057737;28;20111;-64
2023/05/26 11:33:57;;;;;;;7.45;5.47;;;30.60;43.10;;;;;;5057709;28;20284;-64
2023/05/26 11:36:24;;;;;;;6.80;4.82;;;30.70;43.00;;;;;;5057142;28;20021;-64
2023/05/26 11:38:54;;;;;;;9.65;5.05;;;30.60;42.80;;;;;;5057635;28;20100;-64
2023/05/26 11:41:25;;;;;;;5.78;4.78;;;30.60;42.90;;;;;;5056932;28;20074;-64
2023/05/26 11:43:56;;;;;;;7.40;4.90;;;30.60;42.80;;;;;;5057828;28;20074;-64
2023/05/26 11:46:23;;;;;;;6.20;4.95;;;30.60;42.70;;;;;;5056347;28;20029;-64
2023/05/26 11:48:50;;;;;;;7.82;5.10;;;30.60;42.70;;;;;;5057650;28;20097;-64
2023/05/26 11:51:19;;;;;;;7.45;5.03;;;30.70;42.70;;;;;;5057622;28;20140;-64
2023/05/26 11:54:08;;;;;;;6.95;4.93;;;30.70;42.50;;;;;;5057266;28;20055;-62
2023/05/26 11:56:35;;;;;;;6.35;4.72;;;30.70;42.30;;;;;;5057411;28;20032;-65
2023/05/26 11:59:02;;;;;;;7.07;5.13;;;30.80;42.10;;;;;;5057413;28;20032;-64
2023/05/26 12:01:31;;;;;;;7.05;4.80;;;30.70;41.60;;;;;;5057188;28;20150;-64
2023/05/26 12:04:01;;;;;;;6.82;4.75;;;30.60;41.50;;;;;;5057889;28;20025;-66
2023/05/26 12:06:30;;;;;;;6.82;4.53;;;30.50;41.70;;;;;;5057214;28;20040;-64
2023/05/26 12:09:00;;;;;;;14.35;5.13;;;30.50;41.70;;;;;;5056989;28;20453;-63
2023/05/26 12:11:42;;;;;;;7.88;4.70;;;30.60;42.00;;;;;;5056946;28;20446;-64
2023/05/26 12:14:12;;;;;;;6.20;4.35;;;30.70;42.10;;;;;;5056051;28;20041;-63
2023/05/26 12:16:52;;;;;;;6.13;5.20;;;30.80;42.10;;;;;;5056701;28;20021;-64
2023/05/26 12:19:21;;;;;;;8.43;4.80;;;30.80;42.20;;;;;;5057113;28;20114;-64
2023/05/26 12:21:48;;;;;;;9.13;5.40;;;30.80;42.00;;;;;;5056699;28;20021;-63
2023/05/26 12:24:33;;;;;;;6.15;4.85;;;30.80;42.10;;;;;;5056750;28;20055;-72
2023/05/26 12:27:07;;;;;;;67.82;8.77;;;30.80;41.90;;;;;;5056249;28;20048;-66
2023/05/26 12:29:38;;;;;;;10.35;4.60;;;30.90;42.00;;;;;;5056848;28;20056;-67
2023/05/26 12:32:06;;;;;;;6.97;4.85;;;30.90;41.90;;;;;;5057142;28;20067;-62
2023/05/26 12:34:32;;;;;;;7.15;5.00;;;30.90;41.60;;;;;;5056495;28;20118;-67
2023/05/26 12:36:58;;;;;;;6.75;4.93;;;30.90;41.30;;;;;;5056441;28;20454;-65
2023/05/26 12:39:24;;;;;;;6.35;4.72;;;30.90;41.10;;;;;;5056328;28;20070;-66
2023/05/26 12:41:50;;;;;;;8.00;4.63;;;30.80;41.40;;;;;;5056482;28;20029;-67
2023/05/26 12:44:16;;;;;;;7.53;5.05;;;30.80;41.70;;;;;;5056481;28;20461;-67
2023/05/26 12:46:44;;;;;;;6.00;4.65;;;30.80;42.00;;;;;;5056341;28;20035;-67
2023/05/26 12:49:11;;;;;;;6.97;5.13;;;30.80;42.00;;;;;;5056200;28;20029;-65